Time;durP1;ratioP1;P1;durP2;ratioP2;P2;SDS_P1;SDS_P2;PMS_P1;PMS_P2;Temp;Humidity;BMP_temperature;BMP_pressure;BME280_temperature;BME280_humidity;BME280_pressure;Samples;Min_cycle;Max_cycle;Signal;HPM_P1;HPM_P2
2022/12/10 00:01:15;;;;;;;117.50;34.17;;;;;;;-0.87;100.00;100530.94;5004099;28;20037;-83
2022/12/10 00:03:45;;;;;;;127.22;35.42;;;;;;;-0.86;100.00;100532.72;5001287;28;20538;-84
2022/12/10 00:06:16;;;;;;;118.50;34.55;;;;;;;-0.98;100.00;100504.50;4994396;28;20038;-84
2022/12/10 00:08:42;;;;;;;107.88;33.72;;;;;;;-1.06;100.00;100504.78;4988352;28;20597;-85
2022/12/10 00:11:11;;;;;;;118.57;33.63;;;;;;;-0.90;100.00;100526.59;4957632;28;20038;-82
2022/12/10 00:13:38;;;;;;;124.38;34.58;;;;;;;-0.90;100.00;100537.34;4987715;28;20058;-82
2022/12/10 00:16:06;;;;;;;121.60;34.22;;;;;;;-0.95;100.00;100528.56;4971775;28;20049;-83
2022/12/10 00:18:32;;;;;;;117.53;33.67;;;;;;;-0.85;100.00;100534.44;5020192;28;20038;-83
2022/12/10 00:20:58;;;;;;;107.53;33.17;;;;;;;-1.05;100.00;100519.06;4987851;28;20030;-83
2022/12/10 00:23:24;;;;;;;115.55;33.28;;;;;;;-1.10;100.00;100529.97;4988146;28;20048;-82
2022/12/10 00:25:49;;;;;;;112.28;35.10;;;;;;;-1.12;100.00;100543.47;4985999;28;20038;-83
2022/12/10 00:28:15;;;;;;;124.60;33.55;;;;;;;-0.98;100.00;100539.44;4989362;28;20038;-84
2022/12/10 00:30:41;;;;;;;115.85;35.33;;;;;;;-0.91;100.00;100534.69;4981336;28;20504;-83
2022/12/10 00:33:07;;;;;;;119.50;34.83;;;;;;;-0.96;100.00;100534.88;5004046;28;20042;-84
2022/12/10 00:35:36;;;;;;;114.22;33.78;;;;;;;-0.89;100.00;100541.75;4994854;28;20486;-83
2022/12/10 00:38:02;;;;;;;112.20;34.72;;;;;;;-1.20;100.00;100509.75;4985775;28;20058;-83
2022/12/10 00:40:27;;;;;;;128.60;34.75;;;;;;;-1.06;100.00;100536.13;4968915;28;20041;-83
2022/12/10 00:42:53;;;;;;;129.23;34.60;;;;;;;-1.20;100.00;100523.19;5002865;28;20038;-84
2022/12/10 00:45:20;;;;;;;113.97;33.60;;;;;;;-1.09;100.00;100534.44;4991271;28;20062;-86
2022/12/10 00:47:45;;;;;;;111.22;33.50;;;;;;;-1.24;100.00;100514.38;4980086;28;20057;-83
2022/12/10 00:50:11;;;;;;;105.65;32.83;;;;;;;-1.23;100.00;100518.81;4986626;28;20430;-84
2022/12/10 00:52:37;;;;;;;112.57;34.20;;;;;;;-1.07;100.00;100534.38;4953487;28;20142;-83
2022/12/10 00:55:03;;;;;;;109.97;33.33;;;;;;;-1.07;100.00;100540.63;4954383;28;20088;-82
2022/12/10 00:57:29;;;;;;;101.75;31.67;;;;;;;-1.30;100.00;100512.81;5003341;28;20089;-83
2022/12/10 00:59:54;;;;;;;114.93;32.50;;;;;;;-1.06;100.00;100537.00;4996157;28;20046;-83
2022/12/10 01:02:20;;;;;;;121.65;35.17;;;;;;;-1.13;100.00;100524.75;4986522;28;20090;-83
2022/12/10 01:04:46;;;;;;;106.18;34.50;;;;;;;-1.09;100.00;100534.44;4983522;28;20066;-83
2022/12/10 01:07:11;;;;;;;105.10;33.65;;;;;;;-1.31;100.00;100512.84;4985280;28;20034;-84
2022/12/10 01:09:38;;;;;;;102.93;32.42;;;;;;;-1.25;100.00;100536.78;5001523;28;20034;-84
2022/12/10 01:12:05;;;;;;;102.70;31.60;;;;;;;-1.21;100.00;100534.88;4984224;28;20096;-83
2022/12/10 01:14:32;;;;;;;107.63;34.42;;;;;;;-1.46;100.00;100514.25;4964170;28;20035;-83
2022/12/10 01:17:02;;;;;;;103.35;33.83;;;;;;;-1.38;100.00;100533.66;4987800;28;20031;-83
2022/12/10 01:19:28;;;;;;;98.20;32.03;;;;;;;-1.43;100.00;100526.69;4988777;28;20026;-84
2022/12/10 01:21:56;;;;;;;110.30;32.92;;;;;;;-1.36;100.00;100544.34;5000730;28;20532;-83
2022/12/10 01:24:26;;;;;;;108.78;34.55;;;;;;;-1.48;100.00;100551.00;4966671;28;20045;-84
2022/12/10 01:26:52;;;;;;;100.55;33.85;;;;;;;-1.45;100.00;100552.72;5002511;28;20469;-84
2022/12/10 01:29:18;;;;;;;109.72;34.20;;;;;;;-1.50;100.00;100550.19;4998001;28;20035;-83
2022/12/10 01:31:44;;;;;;;116.03;34.10;;;;;;;-1.65;100.00;100548.03;4982884;28;20047;-83
2022/12/10 01:34:13;;;;;;;112.00;32.45;;;;;;;-1.72;100.00;100526.78;4978636;28;20125;-84
2022/12/10 01:36:41;;;;;;;105.05;33.42;;;;;;;-1.56;100.00;100561.13;4977835;28;20229;-86
2022/12/10 01:39:09;;;;;;;103.55;32.50;;;;;;;-1.66;100.00;100563.25;4969846;28;20042;-83
2022/12/10 01:41:36;;;;;;;110.07;33.80;;;;;;;-1.56;100.00;100566.50;4985464;28;20361;-83
2022/12/10 01:44:24;;;;;;;110.88;33.55;;;;;;;-1.55;100.00;100557.53;5003335;28;20026;-83
2022/12/10 01:46:54;;;;;;;117.43;36.80;;;;;;;-1.54;100.00;100560.16;4983296;28;20034;-83
2022/12/10 01:49:27;;;;;;;109.85;35.58;;;;;;;-1.34;100.00;100556.78;4970667;28;20030;-83
2022/12/10 01:51:55;;;;;;;120.70;36.50;;;;;;;-1.35;100.00;100568.44;4984092;28;20069;-82
2022/12/10 01:54:25;;;;;;;113.40;36.22;;;;;;;-1.40;100.00;100572.25;4997724;28;20030;-84
2022/12/10 01:56:58;;;;;;;121.68;36.40;;;;;;;-1.46;100.00;100572.44;5000244;28;20037;-84
2022/12/10 01:59:25;;;;;;;117.45;33.88;;;;;;;-1.59;100.00;100546.03;4983341;28;20030;-84
2022/12/10 02:02:33;;;;;;;110.05;34.55;;;;;;;-1.61;100.00;100571.16;4984382;28;20118;-83
2022/12/10 02:05:21;;;;;;;101.30;33.03;;;;;;;-1.70;100.00;100573.22;5004079;28;20030;-83
2022/12/10 02:08:15;;;;;;;107.30;33.60;;;;;;;-1.61;100.00;100574.69;5004588;28;20098;-83
2022/12/10 02:10:49;;;;;;;98.93;32.03;;;;;;;-1.47;100.00;100574.25;4993424;28;20061;-84
2022/12/10 02:13:34;;;;;;;124.57;36.63;;;;;;;-1.56;100.00;100563.81;5005251;28;20041;-83
2022/12/10 02:16:18;;;;;;;101.00;32.38;;;;;;;-1.69;100.00;100571.41;5006843;28;20034;-84
2022/12/10 02:18:51;;;;;;;104.22;32.85;;;;;;;-1.68;100.00;100573.16;4993892;28;20042;-84
2022/12/10 02:21:24;;;;;;;120.72;35.20;;;;;;;-1.63;100.00;100570.34;4969974;28;20022;-83
2022/12/10 02:24:05;;;;;;;114.32;34.00;;;;;;;-1.63;100.00;100573.03;4953359;28;20042;-84
2022/12/10 02:26:53;;;;;;;106.20;35.17;;;;;;;-1.64;100.00;100565.88;5003672;28;20042;-83
2022/12/10 02:29:24;;;;;;;98.20;32.78;;;;;;;-1.66;100.00;100571.31;5001552;28;20124;-82
2022/12/10 02:31:59;;;;;;;94.10;30.25;;;;;;;-1.82;100.00;100570.06;4988820;28;20041;-83
2022/12/10 02:34:30;;;;;;;107.63;36.47;;;;;;;-1.83;100.00;100558.44;5003171;28;20071;-82
2022/12/10 02:37:01;;;;;;;107.97;33.95;;;;;;;-1.70;100.00;100578.59;5002826;28;20060;-84
2022/12/10 02:39:31;;;;;;;111.22;34.63;;;;;;;-1.78;100.00;100561.00;5005564;28;20038;-83
2022/12/10 02:42:00;;;;;;;107.45;34.22;;;;;;;-1.90;100.00;100567.63;4971688;28;20084;-84
2022/12/10 02:44:29;;;;;;;105.03;33.88;;;;;;;-1.82;100.00;100557.53;5001099;28;20038;-82
2022/12/10 02:46:58;;;;;;;109.40;33.97;;;;;;;-1.92;100.00;100554.28;4987112;28;20110;-84
2022/12/10 02:49:25;;;;;;;107.13;33.75;;;;;;;-1.97;100.00;100560.69;4972704;28;20041;-83
2022/12/10 02:51:52;;;;;;;108.22;36.85;;;;;;;-1.98;100.00;100561.63;5004622;28;20030;-83
2022/12/10 02:54:37;;;;;;;113.32;34.15;;;;;;;-1.97;100.00;100564.25;5004524;28;20107;-83
2022/12/10 02:57:27;;;;;;;121.90;37.22;;;;;;;-2.12;100.00;100557.56;5003082;28;20053;-82
2022/12/10 03:00:16;;;;;;;129.82;36.00;;;;;;;-2.09;100.00;100565.53;4981421;28;20371;-83
2022/12/10 03:03:25;;;;;;;116.45;34.58;;;;;;;-2.09;100.00;100568.22;4981860;28;20033;-84
2022/12/10 03:06:16;;;;;;;131.25;38.65;;;;;;;-2.09;100.00;100567.34;5003241;28;20150;-85
2022/12/10 03:08:59;;;;;;;144.18;39.20;;;;;;;-2.21;100.00;100536.44;4989062;28;20027;-85
2022/12/10 03:11:25;;;;;;;154.63;40.15;;;;;;;-2.01;100.00;100569.78;5004843;28;20125;-83
2022/12/10 03:14:29;;;;;;;151.15;40.78;;;;;;;-1.93;100.00;100576.66;4970139;28;20042;-85
2022/12/10 03:17:00;;;;;;;143.68;39.15;;;;;;;-1.94;100.00;100582.06;4986651;28;20043;-83
2022/12/10 03:19:34;;;;;;;151.93;40.35;;;;;;;-1.87;100.00;100578.25;4985936;28;20095;-83
2022/12/10 03:22:05;;;;;;;163.57;41.85;;;;;;;-1.75;100.00;100577.84;4997685;28;20042;-83
2022/12/10 03:24:30;;;;;;;176.50;42.22;;;;;;;-1.97;100.00;100552.66;4982627;28;20034;-84
2022/12/10 03:26:57;;;;;;;166.25;43.50;;;;;;;-1.82;100.00;100580.78;5004059;28;20031;-85
2022/12/10 03:29:31;;;;;;;181.98;43.20;;;;;;;-1.83;100.00;100579.06;4987567;28;20042;-84
2022/12/10 03:31:59;;;;;;;165.23;41.47;;;;;;;-1.78;100.00;100579.78;4971921;28;20035;-83
2022/12/10 03:34:24;;;;;;;167.80;41.22;;;;;;;-1.80;100.00;100592.34;4988886;28;20045;-83
2022/12/10 03:36:59;;;;;;;149.20;39.35;;;;;;;-1.71;100.00;100581.31;4988633;28;20038;-82
2022/12/10 03:39:26;;;;;;;156.82;41.22;;;;;;;-1.80;100.00;100555.66;4987509;28;20034;-83
2022/12/10 03:41:51;;;;;;;160.10;42.20;;;;;;;-1.76;100.00;100561.81;4987322;28;20034;-83
2022/12/10 03:44:35;;;;;;;162.23;41.35;;;;;;;-1.68;100.00;100571.34;4954954;28;20090;-83
2022/12/10 03:47:03;;;;;;;158.68;40.38;;;;;;;-1.69;100.00;100574.09;5004176;28;20034;-84
2022/12/10 03:49:29;;;;;;;173.50;44.70;;;;;;;-1.63;100.00;100567.66;4987855;28;20026;-82
2022/12/10 03:51:55;;;;;;;150.05;41.00;;;;;;;-1.54;100.00;100580.75;5003872;28;20442;-83
2022/12/10 03:54:20;;;;;;;165.32;45.55;;;;;;;-1.63;100.00;100565.84;4971097;28;20034;-84
2022/12/10 03:56:46;;;;;;;147.82;40.55;;;;;;;-1.50;100.00;100587.78;4987332;28;20049;-83
2022/12/10 03:59:13;;;;;;;169.18;43.88;;;;;;;-1.65;100.00;100589.16;5003886;28;20148;-83
2022/12/10 04:01:38;;;;;;;161.55;42.15;;;;;;;-1.69;100.00;100582.13;4997485;28;20060;-83
2022/12/10 04:04:05;;;;;;;162.55;42.33;;;;;;;-1.63;100.00;100590.00;5017501;28;20030;-83
2022/12/10 04:06:32;;;;;;;178.35;43.60;;;;;;;-1.57;100.00;100591.63;5003312;28;20077;-83
2022/12/10 04:08:57;;;;;;;169.27;42.08;;;;;;;-1.59;100.00;100585.38;4955846;28;20049;-84
2022/12/10 04:11:24;;;;;;;179.98;43.38;;;;;;;-1.56;100.00;100585.28;4986643;28;20120;-84
2022/12/10 04:16:35;;;;;;;172.25;43.92;;;;;;;-1.50;100.00;100593.16;4994114;28;20085;-82
2022/12/10 04:19:35;;;;;;;181.70;44.78;;;;;;;-1.61;100.00;100582.75;4985495;28;20026;-83
2022/12/10 04:27:43;;;;;;;193.32;48.05;;;;;;;-1.50;100.00;100595.84;4975988;28;20026;-84
2022/12/10 04:30:11;;;;;;;171.75;45.28;;;;;;;-1.50;100.00;100604.75;5003636;28;20031;-83
2022/12/10 04:32:36;;;;;;;179.80;44.92;;;;;;;-1.49;100.00;100603.84;5002494;28;20440;-83
2022/12/10 04:35:05;;;;;;;184.25;46.17;;;;;;;-1.47;100.00;100585.00;4961049;28;20042;-83
2022/12/10 04:37:32;;;;;;;158.80;40.88;;;;;;;-1.36;100.00;100600.72;4989399;28;20055;-84
2022/12/10 04:39:58;;;;;;;180.30;43.17;;;;;;;-1.38;100.00;100594.53;5004845;28;20564;-84
2022/12/10 04:42:23;;;;;;;168.93;43.55;;;;;;;-1.46;100.00;100592.09;4971396;28;20038;-82
2022/12/10 04:44:50;;;;;;;161.52;44.17;;;;;;;-1.54;100.00;100573.59;4987120;28;20038;-84
2022/12/10 04:47:17;;;;;;;156.52;41.00;;;;;;;-1.42;100.00;100593.78;4986155;28;20101;-83
2022/12/10 04:49:43;;;;;;;161.73;40.97;;;;;;;-1.35;100.00;100600.66;4998091;28;20041;-84
2022/12/10 04:52:12;;;;;;;162.05;41.42;;;;;;;-1.39;100.00;100603.53;5002026;28;20018;-84
2022/12/10 04:54:41;;;;;;;163.57;43.03;;;;;;;-1.46;100.00;100592.09;5003194;28;20042;-83
2022/12/10 04:57:07;;;;;;;175.13;44.83;;;;;;;-1.50;100.00;100595.84;4977050;28;20081;-83
2022/12/10 04:59:33;;;;;;;166.02;41.10;;;;;;;-1.49;100.00;100594.91;4986121;28;20022;-83
2022/12/10 05:02:00;;;;;;;181.15;44.95;;;;;;;-1.40;100.00;100602.63;5001963;28;20030;-84
2022/12/10 05:04:29;;;;;;;172.07;43.63;;;;;;;-1.40;100.00;100599.94;4998016;28;20042;-83
2022/12/10 05:06:54;;;;;;;156.35;41.88;;;;;;;-1.51;100.00;100594.06;4967021;28;20042;-83
2022/12/10 05:09:22;;;;;;;186.23;45.20;;;;;;;-1.46;100.00;100602.84;4959512;28;20401;-84
2022/12/10 05:11:48;;;;;;;150.35;39.25;;;;;;;-1.47;100.00;100606.47;4997582;28;20049;-83
2022/12/10 05:14:15;;;;;;;165.80;42.60;;;;;;;-1.50;100.00;100596.69;4982936;28;20034;-83
2022/12/10 05:16:44;;;;;;;174.77;43.97;;;;;;;-1.51;100.00;100612.84;4966389;28;20030;-84
2022/12/10 05:19:11;;;;;;;173.68;44.42;;;;;;;-1.52;100.00;100587.84;4951839;28;20035;-85
2022/12/10 05:24:21;;;;;;;175.40;43.85;;;;;;;-1.41;100.00;100605.38;5001577;28;20121;-84
2022/12/10 05:26:50;;;;;;;185.70;43.97;;;;;;;-1.48;100.00;100600.22;4980587;28;20038;-84
2022/12/10 05:29:16;;;;;;;146.20;40.88;;;;;;;-1.51;100.00;100597.66;5004293;28;20475;-83
2022/12/10 05:31:42;;;;;;;161.10;38.85;;;;;;;-1.46;100.00;100601.97;4989523;28;20026;-84
2022/12/10 05:34:10;;;;;;;183.52;43.92;;;;;;;-1.48;100.00;100593.97;5006948;28;20526;-83
2022/12/10 05:36:37;;;;;;;161.20;42.58;;;;;;;-1.42;100.00;100606.31;5003806;28;20105;-83
2022/12/10 05:39:04;;;;;;;144.80;39.60;;;;;;;-1.57;100.00;100596.97;5003893;28;20042;-83
2022/12/10 05:41:34;;;;;;;164.82;44.15;;;;;;;-1.52;100.00;100593.19;5004568;28;20015;-82
2022/12/10 05:43:59;;;;;;;185.63;42.53;;;;;;;-1.46;100.00;100602.84;4989939;28;20031;-84
2022/12/10 05:46:30;;;;;;;166.30;40.28;;;;;;;-1.41;100.00;100608.97;4970357;28;20039;-84
2022/12/10 05:48:57;;;;;;;152.02;39.35;;;;;;;-1.37;100.00;100613.28;4998728;28;20046;-82
2022/12/10 05:51:25;;;;;;;164.05;43.70;;;;;;;-1.20;100.00;100601.94;5006250;28;20038;-84
2022/12/10 05:53:52;;;;;;;158.90;38.72;;;;;;;-1.35;100.00;100610.53;5005553;28;20041;-84
2022/12/10 05:56:20;;;;;;;143.25;39.17;;;;;;;-1.36;100.00;100607.00;4987970;28;20094;-83
2022/12/10 05:58:49;;;;;;;150.75;41.17;;;;;;;-1.32;100.00;100603.25;4979975;28;20037;-82
2022/12/10 06:01:18;;;;;;;152.88;41.08;;;;;;;-1.21;100.00;100615.47;4998793;28;20041;-83
2022/12/10 06:03:44;;;;;;;163.00;39.08;;;;;;;-1.27;100.00;100615.66;5002843;28;20037;-83
2022/12/10 06:06:11;;;;;;;164.13;40.55;;;;;;;-1.36;100.00;100623.09;4995261;28;20018;-84
2022/12/10 06:08:36;;;;;;;151.50;39.53;;;;;;;-1.30;100.00;100627.38;4989637;28;20037;-83
2022/12/10 06:11:05;;;;;;;165.95;41.38;;;;;;;-1.31;100.00;100626.50;4989404;28;20034;-83
2022/12/10 06:13:30;;;;;;;152.45;38.05;;;;;;;-1.41;100.00;100603.59;5007640;28;20065;-83
2022/12/10 06:15:55;;;;;;;164.90;41.50;;;;;;;-1.35;100.00;100621.28;5008056;28;20042;-83
2022/12/10 06:18:21;;;;;;;149.85;39.63;;;;;;;-1.37;100.00;100625.84;5006975;28;20049;-82
2022/12/10 06:20:46;;;;;;;162.73;39.40;;;;;;;-1.31;100.00;100618.44;5004209;28;20050;-82
2022/12/10 06:23:12;;;;;;;144.48;36.90;;;;;;;-1.26;100.00;100625.47;4982609;28;20054;-82
2022/12/10 06:25:39;;;;;;;151.27;39.17;;;;;;;-1.29;100.00;100615.72;5003394;28;20064;-84
2022/12/10 06:28:09;;;;;;;150.10;39.03;;;;;;;-1.41;100.00;100595.53;4981757;28;20478;-83
2022/12/10 06:30:35;;;;;;;160.55;40.55;;;;;;;-1.30;100.00;100616.63;5001814;28;20034;-82
2022/12/10 06:33:00;;;;;;;163.38;40.47;;;;;;;-1.27;100.00;100618.34;4989177;28;20046;-82
2022/12/10 06:35:26;;;;;;;176.20;42.97;;;;;;;-1.34;100.00;100628.44;4990167;28;20043;-83
2022/12/10 06:37:52;;;;;;;170.70;39.35;;;;;;;-1.26;100.00;100626.34;5006819;28;20097;-82
2022/12/10 06:40:21;;;;;;;179.02;41.67;;;;;;;-1.38;100.00;100611.50;5005190;28;20086;-82
2022/12/10 06:42:47;;;;;;;192.55;40.38;;;;;;;-1.23;100.00;100619.97;4972783;28;20041;-83
2022/12/10 06:45:12;;;;;;;187.23;43.75;;;;;;;-1.20;100.00;100625.25;4972560;28;20065;-82
2022/12/10 06:47:38;;;;;;;171.98;37.75;;;;;;;-1.20;100.00;100636.00;4972499;28;20077;-84
2022/12/10 06:50:05;;;;;;;185.20;42.72;;;;;;;-1.12;100.00;100634.78;4991504;28;20046;-83
2022/12/10 06:52:31;;;;;;;171.10;38.47;;;;;;;-1.26;100.00;100623.66;4989792;28;20042;-83
2022/12/10 06:54:57;;;;;;;157.93;39.35;;;;;;;-1.20;100.00;100641.38;4988865;28;20098;-81
2022/12/10 06:57:23;;;;;;;169.02;36.80;;;;;;;-1.24;100.00;100645.97;4969341;28;20045;-82
2022/12/10 06:59:49;;;;;;;148.05;38.83;;;;;;;-1.28;100.00;100647.00;4997703;28;20102;-80
2022/12/10 07:02:15;;;;;;;168.55;41.90;;;;;;;-1.32;100.00;100640.00;5009714;28;20057;-81
2022/12/10 07:04:41;;;;;;;158.32;37.53;;;;;;;-1.42;100.00;100635.84;4985809;28;20053;-83
2022/12/10 07:07:06;;;;;;;158.15;36.50;;;;;;;-1.47;100.00;100636.00;5001434;28;20038;-82
2022/12/10 07:09:33;;;;;;;147.20;37.22;;;;;;;-1.43;100.00;100651.06;4960588;28;20070;-82
2022/12/10 07:11:58;;;;;;;158.95;36.55;;;;;;;-1.44;100.00;100646.66;4999545;28;20053;-84
2022/12/10 07:14:24;;;;;;;162.00;36.70;;;;;;;-1.52;100.00;100637.97;4988728;28;20038;-81
2022/12/10 07:16:49;;;;;;;149.48;37.50;;;;;;;-1.58;100.00;100644.41;4967625;28;20048;-80
2022/12/10 07:19:16;;;;;;;158.32;37.80;;;;;;;-1.48;100.00;100650.34;5002011;28;20030;-82
2022/12/10 07:21:43;;;;;;;160.35;36.83;;;;;;;-1.55;100.00;100646.97;4986939;28;20074;-80
2022/12/10 07:24:17;;;;;;;153.27;37.60;;;;;;;-1.46;100.00;100663.72;4984898;28;20489;-82
2022/12/10 07:26:46;;;;;;;165.65;40.13;;;;;;;-1.42;100.00;100662.72;5000606;28;20041;-79
2022/12/10 07:29:16;;;;;;;161.73;40.13;;;;;;;-1.43;100.00;100677.91;4986887;28;20047;-80
2022/12/10 07:31:41;;;;;;;155.55;37.38;;;;;;;-1.50;100.00;100663.81;4997144;28;20034;-81
2022/12/10 07:34:07;;;;;;;157.32;38.88;;;;;;;-1.36;100.00;100671.44;5002496;28;20401;-81
2022/12/10 07:36:32;;;;;;;173.18;39.40;;;;;;;-1.43;100.00;100667.19;4999696;28;20046;-82
2022/12/10 07:38:58;;;;;;;183.40;40.92;;;;;;;-1.44;100.00;100673.50;4970518;28;20035;-83
2022/12/10 07:41:25;;;;;;;151.02;39.78;;;;;;;-1.59;100.00;100664.13;4951505;28;20102;-83
2022/12/10 07:43:51;;;;;;;166.23;38.38;;;;;;;-1.60;100.00;100670.41;5003298;28;20111;-83
2022/12/10 07:46:26;;;;;;;160.93;36.95;;;;;;;-1.41;100.00;100686.81;4997932;28;20450;-78
2022/12/10 07:48:52;;;;;;;163.13;38.58;;;;;;;-1.48;100.00;100686.16;4988449;28;20110;-78
2022/12/10 07:51:20;;;;;;;153.95;39.13;;;;;;;-1.45;100.00;100678.91;5002521;28;20137;-77
2022/12/10 07:53:50;;;;;;;165.30;39.80;;;;;;;-1.40;100.00;100685.88;4982460;28;20035;-79
2022/12/10 07:56:19;;;;;;;155.30;37.85;;;;;;;-1.35;100.00;100691.09;4967208;28;20125;-79
2022/12/10 07:58:45;;;;;;;179.07;41.30;;;;;;;-1.33;100.00;100694.59;5001363;28;20034;-80
2022/12/10 08:01:17;;;;;;;163.80;39.95;;;;;;;-1.27;100.00;100699.78;4983745;28;20039;-80
2022/12/10 08:03:43;;;;;;;183.95;45.85;;;;;;;-1.27;100.00;100686.38;5000970;28;20030;-79
2022/12/10 08:06:14;;;;;;;168.80;41.15;;;;;;;-1.26;100.00;100685.44;5000245;28;20050;-79
2022/12/10 08:08:41;;;;;;;151.27;38.67;;;;;;;-1.16;100.00;100686.88;5001071;28;20033;-81
2022/12/10 08:11:07;;;;;;;143.73;38.10;;;;;;;-1.21;100.00;100687.97;4997992;28;20061;-80
2022/12/10 08:13:33;;;;;;;165.65;39.03;;;;;;;-1.17;100.00;100701.22;4995548;28;20054;-78
2022/12/10 08:16:07;;;;;;;159.65;37.55;;;;;;;-1.15;100.00;100703.88;4980550;28;20053;-80
2022/12/10 08:18:34;;;;;;;168.45;37.28;;;;;;;-1.10;100.00;100709.97;4981937;28;20494;-80
2022/12/10 08:21:07;;;;;;;173.57;39.95;;;;;;;-1.25;100.00;100705.13;4949297;28;20031;-79
2022/12/10 08:23:34;;;;;;;162.52;38.05;;;;;;;-1.39;100.00;100706.44;4998306;28;20042;-80
2022/12/10 08:26:08;;;;;;;157.27;36.63;;;;;;;-1.26;100.00;100712.31;4997780;28;20042;-80
2022/12/10 08:28:35;;;;;;;153.75;38.00;;;;;;;-1.23;100.00;100711.31;5000255;28;20045;-80
2022/12/10 08:31:01;;;;;;;167.88;39.85;;;;;;;-1.20;100.00;100708.53;4981959;28;20047;-81
2022/12/10 08:33:27;;;;;;;159.88;38.72;;;;;;;-1.22;100.00;100711.25;4969060;28;20409;-80
2022/12/10 08:36:00;;;;;;;158.90;38.55;;;;;;;-1.21;100.00;100714.84;4981907;28;20477;-80
2022/12/10 08:38:26;;;;;;;131.55;30.50;;;;;;;-1.29;100.00;100717.78;4995081;28;20034;-80
2022/12/10 08:40:51;;;;;;;163.38;39.25;;;;;;;-1.28;100.00;100727.56;5000351;28;20122;-81
2022/12/10 08:43:18;;;;;;;167.63;39.65;;;;;;;-1.19;100.00;100734.47;5001859;28;20038;-80
2022/12/10 08:45:44;;;;;;;132.20;34.03;;;;;;;-1.38;100.00;100724.28;5001419;28;20057;-80
2022/12/10 08:48:09;;;;;;;175.32;38.47;;;;;;;-1.30;100.00;100714.22;4999475;28;20481;-81
2022/12/10 08:50:37;;;;;;;153.07;38.63;;;;;;;-1.32;100.00;100733.97;4991161;28;20042;-81
2022/12/10 08:53:03;;;;;;;156.27;35.97;;;;;;;-1.26;100.00;100743.63;4968728;28;20034;-80
2022/12/10 08:55:29;;;;;;;190.48;40.20;;;;;;;-1.33;100.00;100722.38;5002446;28;20050;-80
2022/12/10 08:57:58;;;;;;;155.70;37.08;;;;;;;-1.29;100.00;100741.94;5002402;28;20374;-80
2022/12/10 09:00:24;;;;;;;181.00;41.22;;;;;;;-1.26;100.00;100754.38;4985233;28;20065;-80
2022/12/10 09:02:50;;;;;;;186.43;40.95;;;;;;;-1.18;100.00;100752.31;4968984;28;20038;-79
2022/12/10 09:05:15;;;;;;;175.40;39.78;;;;;;;-1.38;100.00;100747.59;4999470;28;20049;-79
2022/12/10 09:07:41;;;;;;;185.85;41.75;;;;;;;-1.31;100.00;100758.09;5001669;28;20113;-80
2022/12/10 09:10:09;;;;;;;175.25;40.10;;;;;;;-1.25;100.00;100767.75;4984734;28;20057;-80
2022/12/10 09:12:34;;;;;;;166.50;37.28;;;;;;;-1.23;100.00;100751.59;4983641;28;20516;-79
2022/12/10 09:15:00;;;;;;;173.85;39.08;;;;;;;-1.31;100.00;100751.88;4987016;28;20030;-80
2022/12/10 09:17:25;;;;;;;179.27;38.38;;;;;;;-1.18;100.00;100763.06;5004453;28;20033;-80
2022/12/10 09:19:50;;;;;;;183.07;42.95;;;;;;;-1.20;100.00;100759.56;4990535;28;20070;-79
2022/12/10 09:22:16;;;;;;;190.50;42.13;;;;;;;-1.19;100.00;100759.50;5002806;28;20096;-78
2022/12/10 09:24:41;;;;;;;177.75;39.45;;;;;;;-0.98;100.00;100767.81;4986618;28;20173;-78
2022/12/10 09:27:07;;;;;;;175.32;41.92;;;;;;;-1.04;100.00;100760.81;4986138;28;20035;-80
2022/12/10 09:29:32;;;;;;;172.25;35.17;;;;;;;-1.04;100.00;100763.50;5004476;28;20049;-80
2022/12/10 09:31:59;;;;;;;188.88;39.33;;;;;;;-1.00;100.00;100761.59;5002760;28;20125;-78
2022/12/10 09:34:24;;;;;;;150.50;35.83;;;;;;;-1.11;100.00;100767.34;4984573;28;20458;-79
2022/12/10 09:36:50;;;;;;;159.77;34.58;;;;;;;-1.16;100.00;100761.22;5020166;28;20034;-79
2022/12/10 09:39:15;;;;;;;174.35;38.65;;;;;;;-1.11;100.00;100767.34;4956738;28;20118;-80
2022/12/10 09:41:53;;;;;;;191.77;38.83;;;;;;;-1.08;100.00;100769.03;5002437;28;20034;-79
2022/12/10 09:44:31;;;;;;;181.43;38.72;;;;;;;-1.08;100.00;100764.56;4998407;28;20041;-80
2022/12/10 09:46:59;;;;;;;183.82;38.00;;;;;;;-1.02;100.00;100767.00;4987718;28;20101;-78
2022/12/10 09:49:45;;;;;;;197.60;39.20;;;;;;;-1.01;100.00;100768.78;5003988;28;20048;-80
2022/12/10 09:52:16;;;;;;;190.60;41.30;;;;;;;-0.90;100.00;100770.22;5003843;28;20034;-79
2022/12/10 09:55:08;;;;;;;195.05;41.53;;;;;;;-1.01;100.00;100771.47;5004935;28;20022;-79
2022/12/10 09:57:39;;;;;;;181.93;41.13;;;;;;;-0.97;100.00;100773.13;5001233;28;20057;-80
2022/12/10 10:00:28;;;;;;;154.25;37.38;;;;;;;-0.92;100.00;100778.34;5005528;28;20398;-79
2022/12/10 10:02:57;;;;;;;181.55;39.10;;;;;;;-0.98;100.00;100779.44;5003272;28;20026;-78
2022/12/10 10:05:29;;;;;;;197.80;43.00;;;;;;;-0.89;100.00;100775.56;5004319;28;20053;-78
2022/12/10 10:07:59;;;;;;;194.80;40.10;;;;;;;-0.97;100.00;100778.50;4998566;28;20495;-79
2022/12/10 10:10:31;;;;;;;181.50;41.28;;;;;;;-0.86;100.00;100783.50;4984409;28;20129;-79
2022/12/10 10:13:25;;;;;;;214.60;42.92;;;;;;;-0.81;100.00;100778.88;4987536;28;20030;-79
2022/12/10 10:15:51;;;;;;;211.73;44.20;;;;;;;-0.79;100.00;100786.88;5005413;28;20031;-80
2022/12/10 10:18:29;;;;;;;222.65;41.70;;;;;;;-0.83;100.00;100796.84;5003893;28;20038;-81
2022/12/10 10:20:55;;;;;;;202.77;41.38;;;;;;;-0.87;100.00;100788.94;4990163;28;20038;-79
2022/12/10 10:23:21;;;;;;;212.57;43.42;;;;;;;-0.96;100.00;100779.38;4996583;28;20054;-78
2022/12/10 10:25:47;;;;;;;188.13;40.92;;;;;;;-0.84;100.00;100788.84;5001660;28;20082;-79
2022/12/10 10:28:19;;;;;;;201.45;41.80;;;;;;;-0.84;100.00;100788.84;5002039;28;20034;-79
2022/12/10 10:30:45;;;;;;;217.63;42.38;;;;;;;-0.84;100.00;100783.47;4985700;28;20088;-79
2022/12/10 10:33:13;;;;;;;184.93;39.38;;;;;;;-0.71;100.00;100773.19;4968416;28;20110;-79
2022/12/10 10:35:44;;;;;;;191.13;41.05;;;;;;;-0.83;100.00;100782.56;4975815;28;20030;-79
2022/12/10 10:38:23;;;;;;;204.13;42.33;;;;;;;-0.83;100.00;100778.03;5002436;28;20100;-79
2022/12/10 10:40:52;;;;;;;204.77;41.83;;;;;;;-0.82;100.00;100779.81;5003824;28;20404;-80
2022/12/10 10:43:25;;;;;;;214.82;44.03;;;;;;;-0.77;100.00;100782.31;4985313;28;20484;-79
2022/12/10 10:46:04;;;;;;;186.23;41.13;;;;;;;-0.78;100.00;100777.91;5000612;28;20026;-79
2022/12/10 10:48:30;;;;;;;211.25;44.08;;;;;;;-0.73;100.00;100775.94;4992931;28;20393;-79
2022/12/10 10:51:23;;;;;;;196.05;39.92;;;;;;;-0.67;100.00;100769.44;5003570;28;20034;-79
2022/12/10 10:53:55;;;;;;;176.10;37.93;;;;;;;-0.72;100.00;100776.78;4992297;28;20046;-80
2022/12/10 10:56:22;;;;;;;173.15;38.58;;;;;;;-0.66;100.00;100772.09;4969594;28;20305;-79
2022/12/10 10:59:03;;;;;;;175.40;39.63;;;;;;;-0.57;100.00;100765.53;5005280;28;20030;-79
2022/12/10 11:01:49;;;;;;;164.57;39.17;;;;;;;-0.62;100.00;100773.75;5000474;28;20027;-80
2022/12/10 11:04:18;;;;;;;188.38;42.40;;;;;;;-0.59;100.00;100772.75;5004711;28;20034;-79
2022/12/10 11:06:44;;;;;;;189.07;38.20;;;;;;;-0.60;100.00;100765.63;5004675;28;20034;-79
2022/12/10 11:09:21;;;;;;;194.82;40.25;;;;;;;-0.76;100.00;100773.34;4987206;28;20069;-80
2022/12/10 11:12:32;;;;;;;176.43;40.08;;;;;;;-0.85;100.00;100774.53;4982517;28;20042;-80
2022/12/10 11:14:58;;;;;;;198.25;41.10;;;;;;;-0.80;100.00;100777.06;5012937;28;20047;-80
2022/12/10 11:17:26;;;;;;;199.85;41.13;;;;;;;-0.79;100.00;100770.75;4985234;28;20097;-79